sensor_id;sensor_type;location;lat;lon;timestamp;P1;durP1;ratioP1;P2;durP2;ratioP2
76801;SDS011;66403;50.832;10.950;2023-02-07T00:04:42;11.38;;;6.07;;
76801;SDS011;66403;50.832;10.950;2023-02-07T00:09:43;12.25;;;7.38;;
76801;SDS011;66403;50.832;10.950;2023-02-07T00:14:43;10.10;;;6.55;;
76801;SDS011;66403;50.832;10.950;2023-02-07T00:19:44;11.75;;;6.47;;
76801;SDS011;66403;50.832;10.950;2023-02-07T00:24:44;12.70;;;6.50;;
76801;SDS011;66403;50.832;10.950;2023-02-07T00:29:45;8.05;;;5.22;;
76801;SDS011;66403;50.832;10.950;2023-02-07T00:34:46;11.30;;;5.35;;
76801;SDS011;66403;50.832;10.950;2023-02-07T00:39:46;13.70;;;7.07;;
76801;SDS011;66403;50.832;10.950;2023-02-07T00:44:47;9.30;;;6.13;;
76801;SDS011;66403;50.832;10.950;2023-02-07T00:49:47;12.18;;;5.85;;
76801;SDS011;66403;50.832;10.950;2023-02-07T00:54:48;11.93;;;5.57;;
76801;SDS011;66403;50.832;10.950;2023-02-07T00:59:48;11.48;;;6.28;;
76801;SDS011;66403;50.832;10.950;2023-02-07T01:04:49;13.55;;;6.13;;
76801;SDS011;66403;50.832;10.950;2023-02-07T01:09:49;9.02;;;3.95;;
76801;SDS011;66403;50.832;10.950;2023-02-07T01:14:50;9.75;;;5.60;;
76801;SDS011;66403;50.832;10.950;2023-02-07T01:19:58;10.40;;;5.32;;
76801;SDS011;66403;50.832;10.950;2023-02-07T01:24:59;10.60;;;5.38;;
76801;SDS011;66403;50.832;10.950;2023-02-07T01:29:59;11.85;;;5.93;;
76801;SDS011;66403;50.832;10.950;2023-02-07T01:35:00;10.65;;;6.20;;
76801;SDS011;66403;50.832;10.950;2023-02-07T01:40:00;9.90;;;5.15;;
76801;SDS011;66403;50.832;10.950;2023-02-07T01:45:08;12.20;;;6.20;;
76801;SDS011;66403;50.832;10.950;2023-02-07T01:50:15;8.80;;;4.72;;
76801;SDS011;66403;50.832;10.950;2023-02-07T01:55:21;11.30;;;5.57;;
76801;SDS011;66403;50.832;10.950;2023-02-07T02:00:23;13.18;;;6.28;;
76801;SDS011;66403;50.832;10.950;2023-02-07T02:05:23;11.07;;;5.05;;
76801;SDS011;66403;50.832;10.950;2023-02-07T02:10:26;12.50;;;6.35;;
76801;SDS011;66403;50.832;10.950;2023-02-07T02:15:40;10.75;;;6.25;;
76801;SDS011;66403;50.832;10.950;2023-02-07T02:42:14;13.02;;;6.90;;
76801;SDS011;66403;50.832;10.950;2023-02-07T02:47:19;9.70;;;4.85;;
76801;SDS011;66403;50.832;10.950;2023-02-07T02:52:20;12.15;;;5.00;;
76801;SDS011;66403;50.832;10.950;2023-02-07T02:57:28;10.18;;;5.10;;
76801;SDS011;66403;50.832;10.950;2023-02-07T03:02:39;8.35;;;4.60;;
76801;SDS011;66403;50.832;10.950;2023-02-07T03:08:20;13.50;;;6.07;;
76801;SDS011;66403;50.832;10.950;2023-02-07T03:23:45;10.35;;;5.70;;
76801;SDS011;66403;50.832;10.950;2023-02-07T03:28:46;11.07;;;6.25;;
76801;SDS011;66403;50.832;10.950;2023-02-07T03:33:48;11.20;;;5.30;;
76801;SDS011;66403;50.832;10.950;2023-02-07T03:38:53;6.88;;;4.10;;
76801;SDS011;66403;50.832;10.950;2023-02-07T03:43:54;11.57;;;5.90;;
76801;SDS011;66403;50.832;10.950;2023-02-07T03:48:57;10.07;;;5.35;;
76801;SDS011;66403;50.832;10.950;2023-02-07T03:53:57;11.20;;;5.43;;
76801;SDS011;66403;50.832;10.950;2023-02-07T03:58:57;8.82;;;4.97;;
76801;SDS011;66403;50.832;10.950;2023-02-07T04:03:58;8.50;;;4.38;;
76801;SDS011;66403;50.832;10.950;2023-02-07T04:08:59;15.88;;;6.20;;
76801;SDS011;66403;50.832;10.950;2023-02-07T04:13:59;9.75;;;5.05;;
76801;SDS011;66403;50.832;10.950;2023-02-07T04:19:00;8.98;;;4.68;;
76801;SDS011;66403;50.832;10.950;2023-02-07T04:24:00;10.80;;;5.72;;
76801;SDS011;66403;50.832;10.950;2023-02-07T04:29:01;13.30;;;6.03;;
76801;SDS011;66403;50.832;10.950;2023-02-07T04:34:01;8.80;;;5.00;;
76801;SDS011;66403;50.832;10.950;2023-02-07T04:39:02;9.20;;;4.60;;
76801;SDS011;66403;50.832;10.950;2023-02-07T04:44:03;5.88;;;4.22;;
76801;SDS011;66403;50.832;10.950;2023-02-07T04:49:03;10.23;;;5.13;;
76801;SDS011;66403;50.832;10.950;2023-02-07T04:54:04;11.43;;;5.57;;
76801;SDS011;66403;50.832;10.950;2023-02-07T04:59:05;12.30;;;5.85;;
76801;SDS011;66403;50.832;10.950;2023-02-07T05:04:05;11.68;;;5.72;;
76801;SDS011;66403;50.832;10.950;2023-02-07T05:09:05;14.07;;;5.68;;
76801;SDS011;66403;50.832;10.950;2023-02-07T05:14:06;11.40;;;5.93;;
76801;SDS011;66403;50.832;10.950;2023-02-07T05:19:06;8.27;;;4.68;;
76801;SDS011;66403;50.832;10.950;2023-02-07T05:24:07;10.75;;;5.10;;
76801;SDS011;66403;50.832;10.950;2023-02-07T05:29:07;10.77;;;6.25;;
76801;SDS011;66403;50.832;10.950;2023-02-07T05:34:08;11.23;;;6.10;;
76801;SDS011;66403;50.832;10.950;2023-02-07T05:39:08;8.77;;;5.28;;
76801;SDS011;66403;50.832;10.950;2023-02-07T05:44:09;12.98;;;5.63;;
76801;SDS011;66403;50.832;10.950;2023-02-07T05:49:09;7.75;;;4.68;;
76801;SDS011;66403;50.832;10.950;2023-02-07T05:54:10;8.15;;;5.45;;
76801;SDS011;66403;50.832;10.950;2023-02-07T05:59:10;11.18;;;5.47;;
76801;SDS011;66403;50.832;10.950;2023-02-07T06:04:11;10.75;;;5.68;;
76801;SDS011;66403;50.832;10.950;2023-02-07T06:09:11;10.05;;;6.50;;
76801;SDS011;66403;50.832;10.950;2023-02-07T06:14:11;8.85;;;4.80;;
76801;SDS011;66403;50.832;10.950;2023-02-07T06:19:12;10.00;;;5.03;;
76801;SDS011;66403;50.832;10.950;2023-02-07T06:24:13;12.65;;;5.93;;
76801;SDS011;66403;50.832;10.950;2023-02-07T06:29:14;12.63;;;5.45;;
76801;SDS011;66403;50.832;10.950;2023-02-07T06:34:15;9.68;;;4.97;;
76801;SDS011;66403;50.832;10.950;2023-02-07T06:39:15;13.93;;;7.43;;
76801;SDS011;66403;50.832;10.950;2023-02-07T06:44:16;6.63;;;4.30;;
76801;SDS011;66403;50.832;10.950;2023-02-07T06:54:17;8.93;;;5.90;;
76801;SDS011;66403;50.832;10.950;2023-02-07T06:59:17;12.43;;;6.32;;
76801;SDS011;66403;50.832;10.950;2023-02-07T07:04:18;15.55;;;7.20;;
76801;SDS011;66403;50.832;10.950;2023-02-07T07:09:18;9.80;;;6.32;;
76801;SDS011;66403;50.832;10.950;2023-02-07T07:14:19;13.43;;;7.45;;
76801;SDS011;66403;50.832;10.950;2023-02-07T07:19:20;11.32;;;6.68;;
76801;SDS011;66403;50.832;10.950;2023-02-07T07:24:20;13.85;;;6.75;;
76801;SDS011;66403;50.832;10.950;2023-02-07T07:29:21;13.45;;;6.90;;
76801;SDS011;66403;50.832;10.950;2023-02-07T07:34:21;18.27;;;8.65;;
76801;SDS011;66403;50.832;10.950;2023-02-07T07:39:22;15.90;;;8.05;;
76801;SDS011;66403;50.832;10.950;2023-02-07T07:44:23;17.67;;;8.98;;
76801;SDS011;66403;50.832;10.950;2023-02-07T07:49:23;12.27;;;6.85;;
76801;SDS011;66403;50.832;10.950;2023-02-07T07:54:24;16.35;;;8.80;;
76801;SDS011;66403;50.832;10.950;2023-02-07T07:59:24;14.75;;;8.05;;
76801;SDS011;66403;50.832;10.950;2023-02-07T08:04:24;13.98;;;8.27;;
76801;SDS011;66403;50.832;10.950;2023-02-07T08:09:25;14.63;;;8.60;;
76801;SDS011;66403;50.832;10.950;2023-02-07T08:14:25;12.45;;;7.63;;
76801;SDS011;66403;50.832;10.950;2023-02-07T08:19:26;15.55;;;9.82;;
76801;SDS011;66403;50.832;10.950;2023-02-07T08:24:26;15.43;;;8.48;;
76801;SDS011;66403;50.832;10.950;2023-02-07T08:29:27;13.45;;;8.35;;
76801;SDS011;66403;50.832;10.950;2023-02-07T08:34:28;16.33;;;9.68;;
76801;SDS011;66403;50.832;10.950;2023-02-07T08:39:30;17.05;;;8.32;;
76801;SDS011;66403;50.832;10.950;2023-02-07T08:44:31;16.80;;;8.95;;
76801;SDS011;66403;50.832;10.950;2023-02-07T08:49:32;16.02;;;9.50;;
76801;SDS011;66403;50.832;10.950;2023-02-07T08:54:32;14.35;;;8.65;;
76801;SDS011;66403;50.832;10.950;2023-02-07T08:59:33;13.02;;;8.45;;
76801;SDS011;66403;50.832;10.950;2023-02-07T09:04:33;12.18;;;8.23;;
76801;SDS011;66403;50.832;10.950;2023-02-07T09:09:35;13.73;;;7.55;;
76801;SDS011;66403;50.832;10.950;2023-02-07T09:14:36;12.05;;;8.45;;
76801;SDS011;66403;50.832;10.950;2023-02-07T09:19:37;14.45;;;8.23;;
76801;SDS011;66403;50.832;10.950;2023-02-07T09:24:38;12.77;;;8.18;;
76801;SDS011;66403;50.832;10.950;2023-02-07T09:29:39;16.23;;;8.70;;
76801;SDS011;66403;50.832;10.950;2023-02-07T09:34:40;14.27;;;8.63;;
76801;SDS011;66403;50.832;10.950;2023-02-07T09:39:40;14.20;;;9.05;;
76801;SDS011;66403;50.832;10.950;2023-02-07T09:44:50;15.98;;;8.60;;
76801;SDS011;66403;50.832;10.950;2023-02-07T09:49:56;15.23;;;9.52;;
76801;SDS011;66403;50.832;10.950;2023-02-07T09:54:59;13.07;;;8.35;;
76801;SDS011;66403;50.832;10.950;2023-02-07T10:00:01;13.75;;;8.95;;
76801;SDS011;66403;50.832;10.950;2023-02-07T10:05:20;15.98;;;10.13;;
76801;SDS011;66403;50.832;10.950;2023-02-07T10:10:34;12.10;;;8.30;;
76801;SDS011;66403;50.832;10.950;2023-02-07T10:15:43;19.25;;;9.27;;
76801;SDS011;66403;50.832;10.950;2023-02-07T10:31:28;14.18;;;8.68;;
76801;SDS011;66403;50.832;10.950;2023-02-07T10:36:31;12.60;;;8.13;;
76801;SDS011;66403;50.832;10.950;2023-02-07T10:41:35;11.98;;;8.05;;
76801;SDS011;66403;50.832;10.950;2023-02-07T10:46:37;11.40;;;7.40;;
76801;SDS011;66403;50.832;10.950;2023-02-07T10:51:40;14.32;;;8.75;;
76801;SDS011;66403;50.832;10.950;2023-02-07T10:56:44;14.32;;;7.90;;
76801;SDS011;66403;50.832;10.950;2023-02-07T11:01:50;12.90;;;8.73;;
76801;SDS011;66403;50.832;10.950;2023-02-07T11:06:59;15.10;;;9.73;;
76801;SDS011;66403;50.832;10.950;2023-02-07T11:12:00;14.50;;;8.95;;
76801;SDS011;66403;50.832;10.950;2023-02-07T11:17:15;13.38;;;9.82;;
76801;SDS011;66403;50.832;10.950;2023-02-07T11:22:20;13.77;;;9.63;;
76801;SDS011;66403;50.832;10.950;2023-02-07T11:27:22;11.65;;;8.55;;
76801;SDS011;66403;50.832;10.950;2023-02-07T11:32:23;12.70;;;9.50;;
76801;SDS011;66403;50.832;10.950;2023-02-07T11:37:26;12.65;;;9.75;;
76801;SDS011;66403;50.832;10.950;2023-02-07T11:42:34;11.80;;;9.30;;
76801;SDS011;66403;50.832;10.950;2023-02-07T11:47:34;12.68;;;9.57;;
76801;SDS011;66403;50.832;10.950;2023-02-07T11:52:37;14.77;;;10.18;;
76801;SDS011;66403;50.832;10.950;2023-02-07T11:57:38;12.15;;;8.70;;
76801;SDS011;66403;50.832;10.950;2023-02-07T12:02:39;12.73;;;9.43;;
76801;SDS011;66403;50.832;10.950;2023-02-07T12:07:41;10.60;;;8.95;;
76801;SDS011;66403;50.832;10.950;2023-02-07T12:12:56;11.55;;;8.25;;
76801;SDS011;66403;50.832;10.950;2023-02-07T12:23:22;11.35;;;8.77;;
76801;SDS011;66403;50.832;10.950;2023-02-07T12:28:48;11.55;;;9.38;;
76801;SDS011;66403;50.832;10.950;2023-02-07T12:34:04;11.40;;;8.68;;
76801;SDS011;66403;50.832;10.950;2023-02-07T12:39:15;12.32;;;9.43;;
76801;SDS011;66403;50.832;10.950;2023-02-07T12:44:40;31.20;;;18.75;;
76801;SDS011;66403;50.832;10.950;2023-02-07T12:55:38;13.98;;;9.55;;
76801;SDS011;66403;50.832;10.950;2023-02-07T13:22:01;14.57;;;10.85;;
76801;SDS011;66403;50.832;10.950;2023-02-07T13:27:06;14.88;;;10.32;;
76801;SDS011;66403;50.832;10.950;2023-02-07T13:32:12;17.02;;;11.77;;
76801;SDS011;66403;50.832;10.950;2023-02-07T13:37:16;15.73;;;9.82;;
76801;SDS011;66403;50.832;10.950;2023-02-07T13:47:35;15.15;;;11.05;;
76801;SDS011;66403;50.832;10.950;2023-02-07T13:53:10;13.48;;;9.15;;
76801;SDS011;66403;50.832;10.950;2023-02-07T13:58:52;12.65;;;9.07;;
76801;SDS011;66403;50.832;10.950;2023-02-07T14:09:21;13.75;;;9.52;;
76801;SDS011;66403;50.832;10.950;2023-02-07T14:24:47;18.10;;;11.10;;
76801;SDS011;66403;50.832;10.950;2023-02-07T14:45:32;16.50;;;11.57;;
76801;SDS011;66403;50.832;10.950;2023-02-07T14:50:33;18.08;;;11.30;;
76801;SDS011;66403;50.832;10.950;2023-02-07T14:55:40;14.77;;;10.25;;
76801;SDS011;66403;50.832;10.950;2023-02-07T15:00:50;17.75;;;10.98;;
76801;SDS011;66403;50.832;10.950;2023-02-07T15:05:57;18.63;;;12.48;;
76801;SDS011;66403;50.832;10.950;2023-02-07T15:16:17;22.20;;;13.80;;
76801;SDS011;66403;50.832;10.950;2023-02-07T15:21:38;22.65;;;12.70;;
76801;SDS011;66403;50.832;10.950;2023-02-07T15:26:40;21.73;;;12.38;;
76801;SDS011;66403;50.832;10.950;2023-02-07T15:31:41;23.75;;;13.82;;
76801;SDS011;66403;50.832;10.950;2023-02-07T15:36:43;25.63;;;14.00;;
76801;SDS011;66403;50.832;10.950;2023-02-07T15:41:45;26.88;;;12.98;;
76801;SDS011;66403;50.832;10.950;2023-02-07T15:46:47;19.70;;;10.80;;
76801;SDS011;66403;50.832;10.950;2023-02-07T15:52:23;23.80;;;12.50;;
76801;SDS011;66403;50.832;10.950;2023-02-07T15:57:26;17.45;;;10.32;;
76801;SDS011;66403;50.832;10.950;2023-02-07T16:02:32;27.13;;;12.10;;
76801;SDS011;66403;50.832;10.950;2023-02-07T16:07:35;26.52;;;13.45;;
76801;SDS011;66403;50.832;10.950;2023-02-07T16:12:44;21.25;;;11.90;;
76801;SDS011;66403;50.832;10.950;2023-02-07T16:17:48;27.77;;;13.75;;
76801;SDS011;66403;50.832;10.950;2023-02-07T16:22:49;22.50;;;11.38;;
76801;SDS011;66403;50.832;10.950;2023-02-07T16:27:50;28.70;;;13.57;;
76801;SDS011;66403;50.832;10.950;2023-02-07T16:32:51;26.88;;;12.90;;
76801;SDS011;66403;50.832;10.950;2023-02-07T16:37:52;26.70;;;13.32;;
76801;SDS011;66403;50.832;10.950;2023-02-07T16:42:53;23.70;;;12.80;;
76801;SDS011;66403;50.832;10.950;2023-02-07T16:47:55;30.40;;;13.27;;
76801;SDS011;66403;50.832;10.950;2023-02-07T16:52:57;27.27;;;13.02;;
76801;SDS011;66403;50.832;10.950;2023-02-07T16:57:58;37.30;;;19.35;;
76801;SDS011;66403;50.832;10.950;2023-02-07T17:03:00;39.85;;;16.73;;
76801;SDS011;66403;50.832;10.950;2023-02-07T17:08:11;24.90;;;13.38;;
76801;SDS011;66403;50.832;10.950;2023-02-07T17:13:13;30.83;;;14.90;;
76801;SDS011;66403;50.832;10.950;2023-02-07T17:18:14;24.33;;;12.07;;
76801;SDS011;66403;50.832;10.950;2023-02-07T17:23:14;24.20;;;12.23;;
76801;SDS011;66403;50.832;10.950;2023-02-07T17:28:15;26.13;;;10.80;;
76801;SDS011;66403;50.832;10.950;2023-02-07T17:33:16;21.85;;;9.05;;
76801;SDS011;66403;50.832;10.950;2023-02-07T17:38:16;25.00;;;12.65;;
76801;SDS011;66403;50.832;10.950;2023-02-07T17:43:17;24.65;;;11.18;;
76801;SDS011;66403;50.832;10.950;2023-02-07T17:48:17;29.23;;;14.18;;
76801;SDS011;66403;50.832;10.950;2023-02-07T17:53:18;36.42;;;14.23;;
76801;SDS011;66403;50.832;10.950;2023-02-07T17:58:22;28.02;;;13.57;;
76801;SDS011;66403;50.832;10.950;2023-02-07T18:03:22;30.88;;;13.00;;
76801;SDS011;66403;50.832;10.950;2023-02-07T18:08:23;35.63;;;16.55;;
76801;SDS011;66403;50.832;10.950;2023-02-07T18:13:26;33.35;;;15.60;;
76801;SDS011;66403;50.832;10.950;2023-02-07T18:18:27;21.23;;;10.77;;
76801;SDS011;66403;50.832;10.950;2023-02-07T18:23:28;27.52;;;12.35;;
76801;SDS011;66403;50.832;10.950;2023-02-07T18:28:28;23.02;;;12.50;;
76801;SDS011;66403;50.832;10.950;2023-02-07T18:33:29;65.85;;;28.38;;
76801;SDS011;66403;50.832;10.950;2023-02-07T18:38:32;28.70;;;14.93;;
76801;SDS011;66403;50.832;10.950;2023-02-07T18:43:35;34.72;;;14.60;;
76801;SDS011;66403;50.832;10.950;2023-02-07T18:48:36;36.40;;;16.70;;
76801;SDS011;66403;50.832;10.950;2023-02-07T18:53:37;33.50;;;16.00;;
76801;SDS011;66403;50.832;10.950;2023-02-07T18:58:38;31.83;;;13.70;;
76801;SDS011;66403;50.832;10.950;2023-02-07T19:03:38;31.80;;;17.20;;
76801;SDS011;66403;50.832;10.950;2023-02-07T19:08:39;22.40;;;11.98;;
76801;SDS011;66403;50.832;10.950;2023-02-07T19:13:40;31.50;;;15.18;;
76801;SDS011;66403;50.832;10.950;2023-02-07T19:18:40;32.03;;;15.80;;
76801;SDS011;66403;50.832;10.950;2023-02-07T19:23:41;27.33;;;12.77;;
76801;SDS011;66403;50.832;10.950;2023-02-07T19:28:41;27.33;;;13.45;;
76801;SDS011;66403;50.832;10.950;2023-02-07T19:33:51;23.17;;;9.98;;
76801;SDS011;66403;50.832;10.950;2023-02-07T19:38:52;17.80;;;10.75;;
76801;SDS011;66403;50.832;10.950;2023-02-07T19:43:53;22.40;;;9.90;;
76801;SDS011;66403;50.832;10.950;2023-02-07T19:48:53;23.27;;;10.88;;
76801;SDS011;66403;50.832;10.950;2023-02-07T19:53:54;21.80;;;11.25;;
76801;SDS011;66403;50.832;10.950;2023-02-07T19:58:55;13.07;;;7.93;;
76801;SDS011;66403;50.832;10.950;2023-02-07T20:03:56;25.55;;;11.27;;
76801;SDS011;66403;50.832;10.950;2023-02-07T20:08:57;22.80;;;12.05;;
76801;SDS011;66403;50.832;10.950;2023-02-07T20:13:59;26.35;;;11.30;;
76801;SDS011;66403;50.832;10.950;2023-02-07T20:19:02;19.58;;;9.88;;
76801;SDS011;66403;50.832;10.950;2023-02-07T20:24:05;24.80;;;11.63;;
76801;SDS011;66403;50.832;10.950;2023-02-07T20:29:07;20.90;;;10.65;;
76801;SDS011;66403;50.832;10.950;2023-02-07T20:34:11;29.90;;;11.05;;
76801;SDS011;66403;50.832;10.950;2023-02-07T20:39:14;24.48;;;10.50;;
76801;SDS011;66403;50.832;10.950;2023-02-07T20:44:17;23.10;;;10.38;;
76801;SDS011;66403;50.832;10.950;2023-02-07T20:49:23;18.55;;;10.52;;
76801;SDS011;66403;50.832;10.950;2023-02-07T20:54:26;24.10;;;10.70;;
76801;SDS011;66403;50.832;10.950;2023-02-07T20:59:29;28.90;;;11.52;;
76801;SDS011;66403;50.832;10.950;2023-02-07T21:04:31;19.77;;;9.60;;
76801;SDS011;66403;50.832;10.950;2023-02-07T21:09:33;20.27;;;9.90;;
76801;SDS011;66403;50.832;10.950;2023-02-07T21:14:34;21.75;;;9.63;;
76801;SDS011;66403;50.832;10.950;2023-02-07T21:19:34;21.08;;;10.63;;
76801;SDS011;66403;50.832;10.950;2023-02-07T21:24:35;20.33;;;9.30;;
76801;SDS011;66403;50.832;10.950;2023-02-07T21:29:36;20.50;;;8.10;;
76801;SDS011;66403;50.832;10.950;2023-02-07T21:34:37;20.80;;;10.60;;
76801;SDS011;66403;50.832;10.950;2023-02-07T21:39:38;19.02;;;9.65;;
76801;SDS011;66403;50.832;10.950;2023-02-07T21:44:38;20.17;;;9.52;;
76801;SDS011;66403;50.832;10.950;2023-02-07T21:49:39;18.38;;;9.85;;
76801;SDS011;66403;50.832;10.950;2023-02-07T21:54:39;20.02;;;9.55;;
76801;SDS011;66403;50.832;10.950;2023-02-07T21:59:40;16.85;;;9.82;;
76801;SDS011;66403;50.832;10.950;2023-02-07T22:04:41;22.88;;;9.85;;
76801;SDS011;66403;50.832;10.950;2023-02-07T22:09:41;16.42;;;8.45;;
76801;SDS011;66403;50.832;10.950;2023-02-07T22:14:42;17.58;;;9.10;;
76801;SDS011;66403;50.832;10.950;2023-02-07T22:19:42;16.52;;;7.30;;
76801;SDS011;66403;50.832;10.950;2023-02-07T22:24:43;13.75;;;7.80;;
76801;SDS011;66403;50.832;10.950;2023-02-07T22:29:43;18.95;;;7.70;;
76801;SDS011;66403;50.832;10.950;2023-02-07T22:34:44;16.40;;;7.85;;
76801;SDS011;66403;50.832;10.950;2023-02-07T22:39:47;15.07;;;7.50;;
76801;SDS011;66403;50.832;10.950;2023-02-07T22:44:48;14.75;;;7.22;;
76801;SDS011;66403;50.832;10.950;2023-02-07T22:49:48;12.80;;;5.90;;
76801;SDS011;66403;50.832;10.950;2023-02-07T22:54:49;15.38;;;6.85;;
76801;SDS011;66403;50.832;10.950;2023-02-07T22:59:49;10.88;;;7.53;;
76801;SDS011;66403;50.832;10.950;2023-02-07T23:04:50;17.92;;;6.55;;
76801;SDS011;66403;50.832;10.950;2023-02-07T23:09:52;13.18;;;6.43;;
76801;SDS011;66403;50.832;10.950;2023-02-07T23:14:52;10.70;;;5.63;;
76801;SDS011;66403;50.832;10.950;2023-02-07T23:19:53;9.98;;;5.72;;
76801;SDS011;66403;50.832;10.950;2023-02-07T23:24:54;6.25;;;5.25;;
76801;SDS011;66403;50.832;10.950;2023-02-07T23:29:54;8.45;;;4.57;;
76801;SDS011;66403;50.832;10.950;2023-02-07T23:34:57;13.15;;;6.07;;
76801;SDS011;66403;50.832;10.950;2023-02-07T23:39:57;13.57;;;6.03;;
76801;SDS011;66403;50.832;10.950;2023-02-07T23:44:58;11.20;;;6.00;;
76801;SDS011;66403;50.832;10.950;2023-02-07T23:49:58;13.73;;;5.40;;
76801;SDS011;66403;50.832;10.950;2023-02-07T23:54:58;10.40;;;4.57;;
76801;SDS011;66403;50.832;10.950;2023-02-07T23:59:59;10.13;;;4.90;;
